Time;durP1;ratioP1;P1;durP2;ratioP2;P2;SDS_P1;SDS_P2;PMS_P1;PMS_P2;Temp;Humidity;BMP_temperature;BMP_pressure;BME280_temperature;BME280_humidity;BME280_pressure;Samples;Min_cycle;Max_cycle;Signal;HPM_P1;HPM_P2
2021/06/24 00:00:55;;;;;;;12.97;11.90;;;20.10;99.10;;;;;;5086457;28;20174;-81
2021/06/24 00:03:26;;;;;;;12.77;11.70;;;20.20;99.50;;;;;;5056125;28;20474;-82
2021/06/24 00:05:53;;;;;;;12.70;11.63;;;20.20;98.30;;;;;;5074461;28;20415;-81
2021/06/24 00:08:20;;;;;;;13.57;11.00;;;20.20;99.00;;;;;;5088281;28;20478;-81
2021/06/24 00:10:46;;;;;;;12.60;11.47;;;20.20;98.90;;;;;;5094543;28;20421;-81
2021/06/24 00:13:13;;;;;;;13.67;12.57;;;20.20;99.10;;;;;;5093934;28;20752;-81
2021/06/24 00:15:39;;;;;;;13.13;11.83;;;20.20;98.60;;;;;;5094460;28;20410;-81
2021/06/24 00:18:06;;;;;;;13.27;11.90;;;20.20;98.50;;;;;;5081223;28;20411;-81
2021/06/24 00:20:32;;;;;;;11.93;10.90;;;20.10;98.90;;;;;;5074056;28;20953;-81
2021/06/24 00:22:58;;;;;;;12.27;11.37;;;20.20;99.60;;;;;;5078499;28;20917;-81
2021/06/24 00:25:24;;;;;;;14.77;13.27;;;20.10;98.30;;;;;;5093894;28;20414;-81
2021/06/24 00:27:50;;;;;;;13.20;12.00;;;20.10;97.80;;;;;;5094285;28;20405;-81
2021/06/24 00:30:16;;;;;;;11.63;10.73;;;20.20;97.90;;;;;;5093217;28;20210;-82
2021/06/24 00:32:42;;;;;;;12.70;11.53;;;20.10;98.30;;;;;;5094268;28;20200;-82
2021/06/24 00:35:08;;;;;;;12.23;11.03;;;20.10;99.20;;;;;;5093361;28;20445;-82
2021/06/24 00:37:35;;;;;;;12.90;11.77;;;20.10;99.80;;;;;;5093997;28;20267;-82
2021/06/24 00:40:03;;;;;;;12.23;11.20;;;20.10;99.90;;;;;;5091237;28;20418;-82
2021/06/24 00:42:29;;;;;;;12.27;10.93;;;20.10;99.90;;;;;;5093968;28;20415;-83
2021/06/24 00:44:56;;;;;;;13.17;11.97;;;20.10;99.30;;;;;;5093607;28;20918;-83
2021/06/24 00:47:23;;;;;;;14.20;13.00;;;20.20;99.00;;;;;;5093380;28;20417;-82
2021/06/24 00:49:49;;;;;;;13.47;12.37;;;20.10;98.40;;;;;;5083003;28;20763;-82
2021/06/24 00:52:16;;;;;;;13.37;12.10;;;20.10;98.20;;;;;;5072823;28;20447;-82
2021/06/24 00:54:42;;;;;;;14.17;12.90;;;20.10;98.90;;;;;;5073448;28;20187;-82
2021/06/24 00:57:08;;;;;;;14.00;12.70;;;20.10;98.50;;;;;;5073892;28;20406;-82
2021/06/24 00:59:35;;;;;;;13.87;12.40;;;20.10;99.90;;;;;;5063400;28;20212;-82
2021/06/24 01:02:03;;;;;;;13.90;12.77;;;20.10;99.50;;;;;;5093293;28;20417;-82
2021/06/24 01:04:29;;;;;;;15.00;13.00;;;20.20;98.90;;;;;;5093646;28;20415;-82
2021/06/24 01:06:55;;;;;;;15.07;13.80;;;20.20;98.90;;;;;;5087815;28;20452;-82
2021/06/24 01:09:20;;;;;;;13.93;12.63;;;20.10;99.10;;;;;;5072801;28;20453;-82
2021/06/24 01:11:47;;;;;;;14.93;13.63;;;20.10;99.20;;;;;;5075108;28;20451;-82
2021/06/24 01:14:13;;;;;;;13.70;12.60;;;20.10;99.60;;;;;;5092839;28;20215;-82
2021/06/24 01:16:39;;;;;;;14.37;12.90;;;20.10;99.30;;;;;;5093370;28;20402;-83
2021/06/24 01:19:06;;;;;;;12.77;11.77;;;20.10;99.20;;;;;;5092359;28;20403;-82
2021/06/24 01:21:33;;;;;;;12.60;11.60;;;20.10;99.70;;;;;;5092719;28;20426;-83
2021/06/24 01:23:59;;;;;;;12.50;11.50;;;20.00;99.90;;;;;;5091473;28;20415;-83
2021/06/24 01:26:25;;;;;;;13.57;12.07;;;20.00;99.90;;;;;;5092309;28;20419;-83
2021/06/24 01:28:51;;;;;;;13.30;12.10;;;20.00;99.90;;;;;;5091477;28;20440;-83
2021/06/24 01:31:20;;;;;;;14.17;12.90;;;20.00;99.90;;;;;;5073310;28;20958;-82
2021/06/24 01:33:46;;;;;;;14.60;13.30;;;20.10;99.70;;;;;;5073262;28;20460;-83
2021/06/24 01:36:13;;;;;;;15.73;14.43;;;20.10;99.90;;;;;;5072335;28;20490;-82
2021/06/24 01:38:42;;;;;;;14.07;12.83;;;20.10;99.90;;;;;;5072834;28;20427;-82
2021/06/24 01:41:11;;;;;;;14.80;13.20;;;20.10;99.60;;;;;;5092164;28;20460;-83
2021/06/24 01:43:36;;;;;;;14.90;13.50;;;20.10;99.90;;;;;;5092920;28;20406;-83
2021/06/24 01:46:02;;;;;;;15.53;14.33;;;20.00;99.70;;;;;;5092957;28;20468;-83
2021/06/24 01:48:28;;;;;;;16.10;14.67;;;20.00;99.80;;;;;;5074055;28;20195;-82
2021/06/24 01:50:56;;;;;;;16.03;14.63;;;20.00;99.50;;;;;;5090662;28;20172;-82
2021/06/24 01:53:22;;;;;;;16.63;15.33;;;20.00;99.30;;;;;;5082478;28;20415;-82
2021/06/24 01:55:48;;;;;;;16.00;14.70;;;20.00;99.90;;;;;;5092247;28;20410;-82
2021/06/24 01:58:21;;;;;;;15.07;13.57;;;19.90;99.90;;;;;;5092190;28;20412;-82
2021/06/24 02:00:47;;;;;;;14.50;13.23;;;19.90;99.90;;;;;;5091571;28;20422;-82
2021/06/24 02:03:14;;;;;;;14.50;12.93;;;19.90;99.90;;;;;;5072451;28;20407;-82
2021/06/24 02:05:42;;;;;;;14.53;13.10;;;19.90;99.90;;;;;;5088931;28;20476;-82
2021/06/24 02:08:22;;;;;;;15.67;14.27;;;19.90;99.90;;;;;;5092202;28;20837;-84
2021/06/24 02:10:48;;;;;;;15.70;14.17;;;19.90;99.90;;;;;;5092920;28;20394;-81
2021/06/24 02:13:14;;;;;;;16.40;14.90;;;19.90;99.90;;;;;;5091837;28;20403;-83
2021/06/24 02:15:41;;;;;;;16.43;14.93;;;19.90;99.70;;;;;;5092343;28;20790;-81
2021/06/24 02:18:07;;;;;;;14.93;13.33;;;19.80;99.80;;;;;;5082592;28;20802;-83
2021/06/24 02:20:33;;;;;;;14.67;13.20;;;19.90;99.90;;;;;;5083882;28;20916;-81
2021/06/24 02:22:59;;;;;;;13.63;12.30;;;19.80;99.90;;;;;;5092498;28;20450;-82
2021/06/24 02:25:26;;;;;;;15.67;14.03;;;19.80;99.90;;;;;;5092124;28;20538;-82
2021/06/24 02:27:53;;;;;;;30.73;15.93;;;19.80;99.90;;;;;;5088216;28;20225;-81
2021/06/24 02:30:20;;;;;;;14.80;13.40;;;19.90;99.90;;;;;;5082142;28;20416;-81
2021/06/24 02:32:46;;;;;;;15.70;14.30;;;19.80;99.60;;;;;;5064543;28;20453;-81
2021/06/24 02:35:14;;;;;;;14.67;13.40;;;19.90;99.90;;;;;;5091928;28;20897;-81
2021/06/24 02:37:43;;;;;;;16.77;15.17;;;19.90;99.90;;;;;;5074612;28;20399;-81
2021/06/24 02:40:11;;;;;;;15.83;14.40;;;19.80;99.90;;;;;;5091314;28;20432;-78
2021/06/24 02:42:37;;;;;;;15.87;14.40;;;19.80;99.90;;;;;;5092265;28;20461;-82
2021/06/24 02:45:08;;;;;;;15.90;14.40;;;19.80;99.90;;;;;;5091951;28;20578;-82
2021/06/24 02:47:34;;;;;;;15.70;14.10;;;19.80;99.90;;;;;;5090557;28;20493;-82
2021/06/24 02:50:00;;;;;;;14.87;13.37;;;19.70;99.90;;;;;;5092361;28;20476;-82
2021/06/24 02:52:26;;;;;;;15.23;13.70;;;19.70;99.90;;;;;;5091617;28;20442;-82
2021/06/24 02:54:52;;;;;;;14.57;13.27;;;19.70;99.90;;;;;;5079842;28;20903;-81
2021/06/24 02:57:19;;;;;;;14.57;13.10;;;19.70;99.90;;;;;;5071467;28;20177;-83
2021/06/24 02:59:46;;;;;;;15.80;14.20;;;19.70;99.90;;;;;;5091729;28;20755;-83
2021/06/24 03:02:12;;;;;;;17.30;15.40;;;19.70;99.90;;;;;;5090660;28;20970;-83
2021/06/24 03:04:38;;;;;;;16.23;14.30;;;19.80;99.90;;;;;;5094096;28;20403;-81
2021/06/24 03:07:05;;;;;;;16.40;14.90;;;19.80;99.90;;;;;;5095991;28;20402;-81
2021/06/24 03:09:30;;;;;;;16.30;14.80;;;19.70;99.90;;;;;;5089540;28;20418;-79
2021/06/24 03:11:56;;;;;;;18.80;15.33;;;19.80;99.60;;;;;;5076228;28;20442;-81
2021/06/24 03:14:24;;;;;;;17.57;15.77;;;19.70;99.50;;;;;;5095013;28;20410;-78
2021/06/24 03:16:51;;;;;;;18.40;16.20;;;19.60;99.50;;;;;;5095667;28;20177;-78
2021/06/24 03:19:17;;;;;;;19.00;16.23;;;19.50;99.50;;;;;;5093537;28;20402;-80
2021/06/24 03:21:42;;;;;;;17.67;15.90;;;19.50;99.90;;;;;;5079703;28;20422;-79
2021/06/24 03:24:08;;;;;;;18.57;16.87;;;19.40;99.80;;;;;;5082728;28;20420;-79
2021/06/24 03:26:35;;;;;;;18.73;16.73;;;19.30;99.90;;;;;;5074641;28;20181;-79
2021/06/24 03:29:02;;;;;;;17.63;15.83;;;19.20;99.90;;;;;;5075147;28;20468;-79
2021/06/24 03:31:28;;;;;;;19.00;17.20;;;19.20;99.90;;;;;;5075543;28;20938;-79
2021/06/24 03:33:53;;;;;;;19.10;17.30;;;19.20;99.90;;;;;;5074634;28;20434;-76
2021/06/24 03:36:20;;;;;;;19.73;17.73;;;19.10;99.90;;;;;;5073450;28;20207;-72
2021/06/24 03:38:47;;;;;;;18.30;16.40;;;19.10;99.90;;;;;;5074601;28;20613;-73
2021/06/24 03:41:15;;;;;;;17.50;15.90;;;19.10;99.90;;;;;;5074382;28;20403;-73
2021/06/24 03:43:41;;;;;;;17.20;15.50;;;19.10;99.90;;;;;;5074957;28;20775;-72
2021/06/24 03:46:08;;;;;;;17.93;16.17;;;19.00;99.90;;;;;;5074495;28;20454;-72
2021/06/24 03:48:35;;;;;;;18.13;16.43;;;19.00;99.90;;;;;;5074187;28;20416;-72
2021/06/24 03:51:01;;;;;;;18.27;16.17;;;19.00;99.90;;;;;;5074648;28;20511;-72
2021/06/24 03:53:27;;;;;;;17.67;15.97;;;18.90;99.90;;;;;;5074121;28;20450;-72
2021/06/24 03:55:53;;;;;;;17.60;15.90;;;18.90;99.90;;;;;;5074973;28;20407;-72
2021/06/24 03:58:19;;;;;;;19.20;17.50;;;18.90;99.90;;;;;;5074081;28;20659;-72
2021/06/24 04:00:48;;;;;;;17.90;15.20;;;18.80;99.90;;;;;;5074629;28;20169;-72
2021/06/24 04:03:15;;;;;;;16.13;14.60;;;18.80;99.90;;;;;;5073986;28;20173;-73
2021/06/24 04:05:41;;;;;;;18.53;16.70;;;18.80;99.90;;;;;;5074470;28;20399;-72
2021/06/24 04:08:08;;;;;;;19.50;15.80;;;18.80;99.90;;;;;;5074523;28;20742;-72
2021/06/24 04:10:35;;;;;;;18.83;17.23;;;18.80;99.90;;;;;;5073734;28;20404;-72
2021/06/24 04:13:00;;;;;;;18.57;16.93;;;18.80;99.90;;;;;;5074281;28;20451;-72
2021/06/24 04:15:28;;;;;;;17.67;15.87;;;18.70;99.90;;;;;;5072846;28;20403;-72
2021/06/24 04:17:53;;;;;;;16.73;15.13;;;18.70;99.90;;;;;;5056429;28;20175;-72
2021/06/24 04:20:20;;;;;;;18.60;17.07;;;18.70;99.90;;;;;;5073813;28;20400;-72
2021/06/24 04:22:46;;;;;;;18.17;16.40;;;18.70;99.90;;;;;;5074103;28;20432;-72
2021/06/24 04:25:14;;;;;;;17.37;15.70;;;18.70;99.90;;;;;;5074149;28;20407;-72
2021/06/24 04:27:40;;;;;;;18.27;15.63;;;18.60;99.90;;;;;;5074437;28;20447;-72
2021/06/24 04:30:07;;;;;;;19.17;16.50;;;18.70;99.90;;;;;;5073983;28;20886;-72
2021/06/24 04:32:33;;;;;;;17.43;15.20;;;18.60;99.90;;;;;;5073147;28;20822;-72
2021/06/24 04:34:59;;;;;;;19.10;17.20;;;18.60;99.90;;;;;;5073909;28;20411;-73
2021/06/24 04:37:25;;;;;;;16.70;15.00;;;18.60;99.90;;;;;;5073228;28;20651;-72
2021/06/24 04:39:50;;;;;;;18.07;16.10;;;18.60;99.90;;;;;;5073712;28;20225;-73
2021/06/24 04:42:16;;;;;;;19.60;17.70;;;18.60;99.90;;;;;;5073156;28;20192;-72
2021/06/24 04:44:42;;;;;;;18.43;16.43;;;18.70;99.90;;;;;;5073589;28;20716;-72
2021/06/24 04:47:08;;;;;;;18.20;16.50;;;18.70;99.90;;;;;;5073602;28;20196;-72
2021/06/24 04:49:34;;;;;;;18.53;16.73;;;18.60;99.90;;;;;;5072944;28;20456;-72
2021/06/24 04:52:00;;;;;;;19.27;17.43;;;18.70;99.90;;;;;;5073063;28;20451;-72
2021/06/24 04:54:25;;;;;;;17.70;16.10;;;18.70;99.90;;;;;;5072913;28;20239;-72
2021/06/24 04:56:51;;;;;;;16.63;14.93;;;18.70;99.90;;;;;;5073439;28;20438;-72
2021/06/24 04:59:17;;;;;;;17.23;15.10;;;18.70;99.90;;;;;;5073058;28;20179;-73
2021/06/24 05:01:43;;;;;;;18.47;16.90;;;18.70;99.90;;;;;;5073372;28;20695;-73
2021/06/24 05:04:08;;;;;;;18.70;15.77;;;18.70;99.90;;;;;;5073523;28;20246;-72
2021/06/24 05:06:35;;;;;;;19.50;18.00;;;18.80;99.90;;;;;;5054827;28;20169;-72
2021/06/24 05:09:01;;;;;;;16.63;14.93;;;18.80;99.90;;;;;;5073204;28;20564;-72
2021/06/24 05:11:27;;;;;;;16.73;15.23;;;18.90;99.90;;;;;;5072476;28;20446;-72
2021/06/24 05:13:53;;;;;;;17.57;15.30;;;18.90;99.90;;;;;;5073050;28;20415;-73
2021/06/24 05:16:18;;;;;;;17.97;15.60;;;19.00;99.90;;;;;;5072507;28;20403;-74
2021/06/24 05:18:44;;;;;;;17.60;15.73;;;19.00;99.90;;;;;;5073008;28;20169;-74
2021/06/24 05:21:10;;;;;;;17.60;15.77;;;19.00;99.90;;;;;;5072997;28;20515;-73
2021/06/24 05:23:38;;;;;;;20.23;16.20;;;19.00;99.90;;;;;;5072430;28;20191;-73
2021/06/24 05:26:04;;;;;;;19.07;14.27;;;19.00;99.90;;;;;;5072824;28;20414;-74
2021/06/24 05:28:30;;;;;;;19.40;15.37;;;19.00;99.90;;;;;;5072040;28;20412;-73
2021/06/24 05:30:55;;;;;;;16.20;14.80;;;19.10;99.90;;;;;;5072832;28;20173;-73
2021/06/24 05:33:21;;;;;;;17.73;15.40;;;19.00;99.90;;;;;;5072151;28;20460;-73
2021/06/24 05:35:48;;;;;;;17.00;15.37;;;19.10;99.90;;;;;;5072335;28;20667;-73
2021/06/24 05:38:17;;;;;;;18.20;16.60;;;19.10;99.90;;;;;;5072613;28;20180;-74
2021/06/24 05:40:44;;;;;;;17.30;15.70;;;19.00;99.90;;;;;;5072231;28;20461;-73
2021/06/24 05:43:10;;;;;;;17.73;16.20;;;18.90;99.90;;;;;;5072084;28;20408;-74
2021/06/24 05:45:37;;;;;;;19.30;17.60;;;18.90;99.90;;;;;;5071501;28;20463;-73
2021/06/24 05:48:03;;;;;;;20.67;17.40;;;18.80;99.90;;;;;;5072185;28;20937;-73
2021/06/24 05:50:29;;;;;;;28.37;24.63;;;18.90;99.90;;;;;;5071928;28;20926;-73
2021/06/24 05:52:55;;;;;;;29.10;26.40;;;18.90;99.90;;;;;;5072566;28;20530;-73
2021/06/24 05:58:14;;;;;;;27.97;22.33;;;18.50;99.90;;;;;;5072625;28;20403;-73
2021/06/24 06:00:40;;;;;;;21.07;18.70;;;18.00;99.90;;;;;;5071920;28;20411;-73
2021/06/24 06:03:06;;;;;;;19.90;17.40;;;17.80;99.90;;;;;;5072292;28;20544;-73
2021/06/24 06:05:33;;;;;;;19.77;16.03;;;17.80;99.90;;;;;;5072029;28;20840;-74
2021/06/24 06:07:59;;;;;;;16.80;15.20;;;17.90;99.90;;;;;;5072218;28;20403;-73
2021/06/24 06:10:26;;;;;;;18.63;16.50;;;18.00;99.90;;;;;;5071847;28;20499;-73
2021/06/24 06:12:52;;;;;;;16.07;14.17;;;18.00;99.90;;;;;;5072645;28;20454;-74
2021/06/24 06:15:17;;;;;;;21.73;15.87;;;18.10;99.90;;;;;;5072437;28;20415;-73
2021/06/24 06:17:43;;;;;;;17.33;15.40;;;18.10;99.90;;;;;;5071689;28;20418;-73
2021/06/24 06:20:09;;;;;;;17.40;15.80;;;18.20;99.90;;;;;;5054415;28;20184;-73
2021/06/24 06:22:35;;;;;;;15.87;14.40;;;18.00;99.90;;;;;;5071663;28;20196;-73
2021/06/24 06:25:01;;;;;;;16.60;15.03;;;17.90;99.90;;;;;;5072364;28;20419;-73
2021/06/24 06:27:27;;;;;;;15.33;13.83;;;17.90;99.90;;;;;;5071652;28;20173;-73
2021/06/24 06:29:52;;;;;;;17.23;15.50;;;18.00;99.90;;;;;;5072333;28;20808;-73
2021/06/24 06:32:18;;;;;;;16.70;15.10;;;18.00;99.90;;;;;;5072179;28;20196;-74
2021/06/24 06:34:44;;;;;;;18.20;16.30;;;17.90;99.90;;;;;;5071373;28;20181;-73
2021/06/24 06:37:09;;;;;;;17.23;15.17;;;17.90;99.90;;;;;;5072393;28;20555;-73
2021/06/24 06:39:36;;;;;;;16.20;14.70;;;18.00;99.90;;;;;;5074293;28;20291;-73
2021/06/24 06:42:02;;;;;;;18.60;16.23;;;18.00;99.90;;;;;;5076132;28;20181;-73
2021/06/24 06:44:27;;;;;;;17.20;15.50;;;18.10;99.90;;;;;;5075473;28;20980;-73
2021/06/24 06:46:54;;;;;;;18.60;15.80;;;18.10;99.90;;;;;;5075934;28;20407;-73
2021/06/24 06:49:20;;;;;;;18.67;16.67;;;17.90;99.90;;;;;;5079434;28;20181;-73
2021/06/24 06:51:46;;;;;;;17.53;15.83;;;17.90;99.90;;;;;;5074530;28;20512;-76
2021/06/24 06:54:11;;;;;;;18.23;16.67;;;18.10;99.90;;;;;;5075470;28;20176;-75
2021/06/24 06:56:37;;;;;;;16.77;15.07;;;18.20;99.90;;;;;;5074501;28;20218;-76
2021/06/24 06:59:06;;;;;;;18.50;16.80;;;18.30;99.90;;;;;;5082072;28;20177;-75
2021/06/24 07:01:32;;;;;;;17.60;15.13;;;18.30;99.90;;;;;;5075007;28;20173;-76
2021/06/24 07:03:58;;;;;;;18.03;16.13;;;18.40;99.90;;;;;;5085635;28;20453;-78
2021/06/24 07:06:25;;;;;;;17.23;15.63;;;18.50;99.90;;;;;;5094655;28;20465;-78
2021/06/24 07:08:52;;;;;;;16.87;15.37;;;18.50;99.90;;;;;;5095570;28;20172;-77
2021/06/24 07:11:17;;;;;;;17.23;15.20;;;18.60;99.90;;;;;;5094652;28;20857;-76
2021/06/24 07:13:43;;;;;;;17.50;15.83;;;18.60;99.90;;;;;;5094847;28;20733;-75
2021/06/24 07:16:09;;;;;;;19.13;15.37;;;18.60;99.90;;;;;;5095613;28;20414;-75
2021/06/24 07:18:35;;;;;;;17.97;16.13;;;18.50;99.90;;;;;;5076498;28;20184;-75
2021/06/24 07:21:00;;;;;;;14.57;13.23;;;18.60;99.90;;;;;;5094793;28;20180;-76
2021/06/24 07:23:26;;;;;;;16.43;14.93;;;18.60;99.90;;;;;;5094802;28;20539;-83
2021/06/24 07:25:52;;;;;;;18.63;16.70;;;18.60;99.90;;;;;;5094075;28;20176;-76
2021/06/24 07:28:18;;;;;;;17.53;15.70;;;18.70;99.90;;;;;;5092854;28;20179;-76
2021/06/24 07:30:43;;;;;;;17.57;15.67;;;18.60;99.90;;;;;;5089235;28;20932;-76
2021/06/24 07:33:09;;;;;;;18.37;16.53;;;18.60;99.90;;;;;;5094562;28;20200;-76
2021/06/24 07:35:36;;;;;;;19.47;16.70;;;18.60;99.90;;;;;;5073386;28;20213;-76
2021/06/24 07:38:01;;;;;;;17.40;15.80;;;18.60;99.90;;;;;;5098780;28;20180;-76
2021/06/24 07:40:27;;;;;;;16.80;15.20;;;18.70;99.90;;;;;;5088667;28;20427;-76
2021/06/24 07:42:53;;;;;;;17.80;15.00;;;18.70;99.90;;;;;;5077809;28;20177;-76
2021/06/24 07:45:19;;;;;;;19.30;17.40;;;18.80;99.90;;;;;;5093132;28;20224;-76
2021/06/24 07:47:45;;;;;;;21.07;17.60;;;18.80;99.90;;;;;;5094431;28;20467;-76
2021/06/24 07:50:11;;;;;;;17.70;15.90;;;18.70;99.90;;;;;;5091926;28;20489;-76
2021/06/24 07:52:37;;;;;;;18.53;16.83;;;18.70;99.90;;;;;;5099296;28;20723;-76
2021/06/24 07:55:04;;;;;;;20.43;18.40;;;18.70;99.90;;;;;;5093267;28;20434;-76
2021/06/24 07:57:30;;;;;;;22.73;19.10;;;18.80;99.90;;;;;;5089425;28;20259;-76
2021/06/24 07:59:56;;;;;;;18.97;17.17;;;18.80;99.90;;;;;;5057185;28;21009;-76
2021/06/24 08:02:22;;;;;;;21.23;19.00;;;18.80;99.90;;;;;;5084846;28;20937;-76
2021/06/24 08:04:48;;;;;;;18.80;16.90;;;18.90;99.90;;;;;;5082485;28;20419;-76
2021/06/24 08:07:14;;;;;;;18.90;17.00;;;18.70;99.90;;;;;;5083020;28;20177;-76
2021/06/24 08:09:39;;;;;;;21.10;17.60;;;18.60;99.90;;;;;;5077175;28;20184;-76
2021/06/24 08:12:06;;;;;;;20.27;18.20;;;18.70;99.90;;;;;;5080319;28;20196;-76
2021/06/24 08:14:32;;;;;;;18.40;16.27;;;18.80;99.90;;;;;;5075823;28;20188;-75
2021/06/24 08:16:57;;;;;;;20.43;16.27;;;18.80;99.90;;;;;;5076150;28;20419;-76
2021/06/24 08:19:23;;;;;;;22.20;20.10;;;18.90;99.90;;;;;;5061478;28;20189;-76
2021/06/24 08:21:50;;;;;;;20.53;18.50;;;18.90;99.90;;;;;;5077391;28;20176;-76
2021/06/24 08:24:16;;;;;;;19.93;18.13;;;19.00;99.90;;;;;;5091863;28;20251;-76
2021/06/24 08:26:42;;;;;;;22.60;17.83;;;19.00;99.90;;;;;;5093306;28;20454;-76
2021/06/24 08:29:08;;;;;;;22.50;20.40;;;19.10;99.90;;;;;;5093350;28;20176;-77
2021/06/24 08:31:33;;;;;;;22.10;18.43;;;19.10;99.90;;;;;;5081176;28;20216;-77
2021/06/24 08:33:59;;;;;;;18.80;17.10;;;19.20;99.90;;;;;;5091019;28;20543;-76
2021/06/24 08:36:25;;;;;;;23.20;21.00;;;19.20;99.90;;;;;;5093061;28;20549;-83
2021/06/24 08:38:51;;;;;;;21.40;19.27;;;19.20;99.90;;;;;;5083474;28;20423;-76
2021/06/24 08:41:19;;;;;;;21.40;18.87;;;19.30;99.90;;;;;;5073661;28;20187;-76
2021/06/24 08:43:44;;;;;;;21.27;19.13;;;19.30;99.90;;;;;;5079805;28;20176;-76
2021/06/24 08:46:12;;;;;;;22.17;20.07;;;19.40;99.90;;;;;;5089851;28;20446;-74
2021/06/24 08:48:38;;;;;;;22.20;19.83;;;19.40;99.90;;;;;;5092650;28;20169;-74
2021/06/24 08:51:05;;;;;;;21.13;18.93;;;19.50;99.90;;;;;;5087344;28;20493;-75
2021/06/24 08:53:32;;;;;;;21.20;19.10;;;19.50;99.90;;;;;;5065502;28;20470;-75
2021/06/24 08:55:58;;;;;;;22.63;20.17;;;19.60;99.90;;;;;;5073866;28;20495;-74
2021/06/24 08:58:24;;;;;;;22.70;20.53;;;19.60;99.90;;;;;;5073461;28;20447;-74
2021/06/24 09:00:51;;;;;;;20.17;18.20;;;19.30;99.90;;;;;;5075978;28;20414;-74
2021/06/24 09:03:27;;;;;;;22.27;19.90;;;19.30;99.90;;;;;;5093633;28;20406;-75
2021/06/24 09:06:02;;;;;;;23.27;20.87;;;19.20;99.90;;;;;;5093668;28;20414;-75
2021/06/24 09:08:53;;;;;;;21.13;19.23;;;19.00;99.90;;;;;;5092975;28;20464;-76
2021/06/24 09:11:21;;;;;;;22.00;19.77;;;18.90;99.90;;;;;;5093463;28;20402;-74
2021/06/24 09:14:10;;;;;;;21.30;19.20;;;18.90;99.90;;;;;;5092759;28;20633;-74
2021/06/24 09:16:40;;;;;;;22.27;20.13;;;18.70;99.90;;;;;;5092486;28;20399;-75
2021/06/24 09:19:21;;;;;;;20.33;18.43;;;18.70;99.90;;;;;;5093331;28;20770;-74
2021/06/24 09:21:58;;;;;;;20.97;19.03;;;18.80;99.90;;;;;;5092754;28;20896;-74
2021/06/24 09:24:34;;;;;;;20.80;18.70;;;18.90;99.90;;;;;;5093437;28;20548;-76
2021/06/24 09:27:03;;;;;;;21.83;19.70;;;19.00;99.90;;;;;;5093331;28;20808;-74
2021/06/24 09:29:28;;;;;;;22.17;19.80;;;18.90;99.90;;;;;;5092625;28;20406;-83
2021/06/24 09:31:59;;;;;;;22.60;19.70;;;18.90;99.90;;;;;;5093213;28;20450;-74
2021/06/24 09:34:26;;;;;;;22.37;20.07;;;18.80;99.90;;;;;;5093190;28;20153;-75
2021/06/24 09:36:54;;;;;;;24.13;21.80;;;18.90;99.90;;;;;;5092117;28;20421;-74
2021/06/24 09:39:29;;;;;;;19.87;18.17;;;18.90;99.90;;;;;;5093081;28;20503;-75
2021/06/24 09:42:03;;;;;;;20.20;18.37;;;18.90;99.90;;;;;;5093086;28;20414;-75
2021/06/24 09:44:30;;;;;;;24.00;21.47;;;18.80;99.90;;;;;;5074160;28;20461;-85
2021/06/24 09:46:57;;;;;;;33.90;29.70;;;18.60;99.90;;;;;;5074933;28;20407;-74
2021/06/24 09:49:32;;;;;;;22.13;19.47;;;18.60;99.90;;;;;;5092567;28;20405;-74
2021/06/24 09:51:59;;;;;;;20.67;18.80;;;18.70;99.90;;;;;;5092744;28;20813;-75
2021/06/24 09:54:37;;;;;;;21.37;19.47;;;18.90;99.90;;;;;;5092791;28;20434;-74
2021/06/24 09:57:04;;;;;;;20.80;18.83;;;19.10;99.90;;;;;;5092846;28;20399;-75
2021/06/24 09:59:33;;;;;;;23.13;21.23;;;19.10;99.90;;;;;;5092160;28;20425;-84
2021/06/24 10:02:14;;;;;;;22.50;20.40;;;19.10;99.90;;;;;;5092847;28;20465;-74
2021/06/24 10:04:42;;;;;;;20.93;18.87;;;19.10;99.90;;;;;;5073546;28;20608;-75
2021/06/24 10:07:13;;;;;;;20.37;18.47;;;19.30;99.90;;;;;;5092557;28;20458;-74
2021/06/24 10:09:41;;;;;;;22.87;20.80;;;19.30;99.90;;;;;;5091773;28;20888;-75
2021/06/24 10:12:15;;;;;;;21.87;19.87;;;19.30;99.90;;;;;;5092518;28;20960;-75
2021/06/24 10:14:42;;;;;;;22.67;20.63;;;19.30;99.90;;;;;;5095152;28;20390;-75
2021/06/24 10:17:09;;;;;;;21.97;19.73;;;19.40;99.90;;;;;;5096700;28;20817;-74
2021/06/24 10:19:45;;;;;;;19.83;17.97;;;19.40;99.90;;;;;;5096308;28;20476;-75
2021/06/24 10:22:29;;;;;;;20.40;18.03;;;19.50;99.90;;;;;;5096855;28;20398;-75
2021/06/24 10:25:07;;;;;;;20.43;18.73;;;19.60;99.90;;;;;;5095747;28;20448;-75
2021/06/24 10:27:38;;;;;;;19.57;17.27;;;19.60;99.90;;;;;;5096197;28;20390;-75
2021/06/24 10:30:15;;;;;;;18.90;17.00;;;19.70;99.90;;;;;;5096686;28;20394;-74
2021/06/24 10:32:44;;;;;;;18.73;16.93;;;19.70;99.90;;;;;;5096009;28;20453;-75
2021/06/24 10:35:29;;;;;;;18.87;17.27;;;19.60;99.90;;;;;;5096517;28;20818;-75
2021/06/24 10:37:56;;;;;;;18.63;16.90;;;19.40;99.90;;;;;;5095810;28;20407;-75
2021/06/24 10:40:35;;;;;;;19.23;17.53;;;19.20;99.90;;;;;;5096584;28;20414;-75
2021/06/24 10:43:03;;;;;;;18.23;16.53;;;19.20;99.90;;;;;;5096209;28;20460;-75
2021/06/24 10:45:29;;;;;;;18.77;17.20;;;19.30;99.90;;;;;;5095815;28;20496;-75
2021/06/24 10:47:56;;;;;;;20.10;17.87;;;19.30;99.90;;;;;;5095357;28;21007;-75
2021/06/24 10:50:32;;;;;;;19.60;17.60;;;19.40;99.90;;;;;;5096099;28;20410;-74
2021/06/24 10:53:04;;;;;;;18.00;16.20;;;19.40;99.90;;;;;;5095715;28;20449;-75
2021/06/24 10:55:37;;;;;;;18.30;16.50;;;19.40;99.90;;;;;;5096125;28;20425;-75
2021/06/24 10:58:27;;;;;;;19.03;17.33;;;19.50;99.90;;;;;;5095717;28;20501;-75
2021/06/24 11:00:55;;;;;;;18.53;16.93;;;19.60;99.90;;;;;;5075668;28;20799;-76
2021/06/24 11:03:44;;;;;;;19.00;17.23;;;19.70;99.90;;;;;;5095959;28;20422;-75
2021/06/24 11:06:15;;;;;;;19.37;17.50;;;19.70;99.90;;;;;;5095563;28;20414;-75
2021/06/24 11:08:42;;;;;;;19.80;17.80;;;19.80;99.90;;;;;;5095139;28;20421;-75
2021/06/24 11:11:13;;;;;;;20.80;18.87;;;19.80;99.90;;;;;;5095653;28;20414;-74
2021/06/24 11:13:51;;;;;;;19.00;17.17;;;19.70;99.90;;;;;;5094916;28;20890;-75
2021/06/24 11:16:17;;;;;;;20.03;18.17;;;19.70;99.90;;;;;;5095620;28;20823;-74
2021/06/24 11:19:03;;;;;;;20.20;18.50;;;19.70;99.90;;;;;;5095063;28;20897;-75
2021/06/24 11:21:29;;;;;;;20.57;17.73;;;19.70;99.90;;;;;;5095634;28;20419;-74
2021/06/24 11:24:02;;;;;;;18.60;16.73;;;19.60;99.90;;;;;;5094717;28;20434;-75
2021/06/24 11:26:28;;;;;;;21.63;19.63;;;19.70;99.90;;;;;;5095639;28;20169;-75
2021/06/24 11:29:06;;;;;;;20.17;18.17;;;19.80;99.90;;;;;;5076858;28;20434;-75
2021/06/24 11:31:49;;;;;;;19.80;18.00;;;19.80;99.90;;;;;;5095456;28;20529;-75
2021/06/24 11:36:57;;;;;;;19.50;17.70;;;19.60;99.90;;;;;;5094952;28;20411;-75
2021/06/24 11:39:35;;;;;;;19.57;17.87;;;19.50;99.90;;;;;;5095238;28;20438;-75
2021/06/24 11:42:26;;;;;;;19.73;17.83;;;19.60;99.90;;;;;;5094998;28;20448;-76
2021/06/24 11:44:53;;;;;;;19.70;17.70;;;19.60;99.90;;;;;;5094336;28;20892;-76
2021/06/24 11:47:23;;;;;;;19.20;17.60;;;19.50;99.90;;;;;;5095093;28;20440;-75
2021/06/24 12:04:31;;;;;;;19.07;17.20;;;19.10;99.90;;;;;;5094807;28;20522;-76
2021/06/24 12:07:09;;;;;;;20.90;18.17;;;19.10;99.90;;;;;;5093793;28;20820;-76
2021/06/24 12:09:50;;;;;;;18.33;16.57;;;19.20;99.90;;;;;;5094866;28;20414;-73
2021/06/24 12:12:18;;;;;;;22.03;19.73;;;19.40;99.90;;;;;;5094558;28;20450;-73
2021/06/24 12:14:45;;;;;;;19.93;18.00;;;19.40;99.90;;;;;;5094030;28;20419;-74
2021/06/24 12:17:15;;;;;;;19.13;17.27;;;19.40;99.90;;;;;;5094235;28;20411;-73
2021/06/24 12:20:04;;;;;;;21.47;19.37;;;19.30;99.90;;;;;;5093925;28;20447;-74
2021/06/24 12:22:34;;;;;;;20.10;18.27;;;19.50;99.90;;;;;;5094499;28;20422;-77
2021/06/24 12:25:00;;;;;;;23.00;19.23;;;19.50;99.90;;;;;;5093451;28;20415;-74
2021/06/24 12:27:32;;;;;;;19.70;17.87;;;19.50;99.90;;;;;;5094391;28;20447;-75
2021/06/24 12:30:19;;;;;;;20.57;18.60;;;19.60;99.90;;;;;;5093734;28;20394;-75
2021/06/24 12:32:48;;;;;;;20.30;18.40;;;19.60;99.90;;;;;;5093105;28;20948;-77
2021/06/24 12:35:31;;;;;;;22.77;20.57;;;19.70;99.90;;;;;;5094030;28;20418;-75
2021/06/24 12:38:00;;;;;;;21.23;19.17;;;19.60;99.90;;;;;;5093152;28;20494;-75
2021/06/24 12:40:31;;;;;;;22.10;19.83;;;19.50;99.90;;;;;;5094388;28;20777;-75
2021/06/24 12:42:58;;;;;;;21.80;19.70;;;19.60;99.90;;;;;;5093437;28;20485;-75
2021/06/24 12:45:32;;;;;;;21.87;19.67;;;19.70;99.90;;;;;;5094023;28;20458;-75
2021/06/24 12:47:59;;;;;;;21.43;19.33;;;19.80;99.90;;;;;;5093371;28;20417;-76
2021/06/24 12:50:29;;;;;;;22.53;20.33;;;19.60;99.90;;;;;;5093596;28;20760;-75
2021/06/24 12:53:04;;;;;;;21.03;19.13;;;19.60;99.90;;;;;;5093161;28;20458;-75